サンホセ/フアン・サンタ・マリア の空港の天気 - METARとTAF

フアン・サンタ・マリア国際空港 ( MROC / SJO ) - コスタリカ サンホセ
飛行場実況気象(Metar)
観測時間10/22 08:00 CST (10/22 14:00 UTC)
風向・風速南南東 2m/s
視程10km以上
天気現象
なし
気温23℃
湿度83%
気圧1016hPa
METARMROC 221400Z 15003KT 120V200 CAVOK 23/20 A3001 BECMG 24008KT
過去の天気等 Google飛行場航空写真 Wunderground天気予報

過去48時間のMETAR

飛行場予報(TAF)
発表時間: 10/22 05:00 CST (10/22 11:00 UTC)
予報対象時間: 22日6時 CST ~ 23日6時 CST
風向・風速東 2m/s
視程10km以上
少しの雲 雲底高度 910m
全天の8割程度の雲 雲底高度 3660m
22日9時 CST ~ 22日11時 CST に徐々に
風向・風速西 3m/s
22日13時 CST ~ 22日18時 CST に一時的に
視程5000m
天気現象雷雨
全天の4割程度の積乱雲 雲底高度 460m
22日19時 CST ~ 22日24時 CST に一時的に
天気現象雨 散在した霧
全天の8割程度の雲 雲底高度 460m
23日1時 CST ~ 23日3時 CST に徐々に
風向・風速東北東 2m/s
MROC 221100Z 2212/2312 08004KT 9999 FEW030 BKN120 TX27/2218Z TN19/2310Z
BECMG 2215/2217 26005KT
TEMPO 2219/2224 5000 TSRA SCT015CB
TEMPO 2301/2306 RA BCFG BKN015
BECMG 2307/2309 07004KT